Airfield :
LOGIN :

Register | Disclaimer

   EN    FR    IT 

 










Legend :    VFR   Marginal VFR   IFR   Intensive IFR   Very Intensive IFR
Visi :
Ceiling :
>= 8 km
>= 3000ft
5 to 8 km
1000 to 3000 ft
1500m to 5 km
500 to 1000 ft
800 to 1500m
200 to 500 ft
< 800m
< 200 ft
Symbols :   Thunderstorms  Fog  Heavy snow  Heavy precipitations  Wind > 20 kt
SIGMETs :     Misc.  Thunderstorms  Icing  Turbulence  Mountain Waves  Volcanic Ashes






- Airport Elevation : 505 ft
- IATA code : SXB


LFST - Strasbourg

CURRENT METAR :
  • 052330Z AUTO 02010KT 9999 BKN012 BKN029 BKN039 04/03 Q1038

EXPIRED METARs :
  • 052300Z AUTO 03010KT 9999 BKN014 OVC026 05/03 Q1038
  • 052230Z AUTO 02009KT 9999 FEW013 OVC025 05/03 Q1038
  • 052130Z AUTO 02009KT 9999 BKN012 BKN018 OVC032 05/04 Q1037 TEMPO 3000 -RA BKN007

TAF TAF LFST
Valid from the 06 at 00:00 until the 07 at 00:00 UTC


052300Z 0600/0624 02010KT 9999 BKN020
TEMPO 0600/0608 3000 -RADZ BKN006
FM060900 03010KT 9999 SCT020



MET'MAP, your aeronautical weather chart ! - Copyright ORBIFLY December 2007 - Disclaimer

ORBIFLY MET'MAP TEAM :

Programming & Development : Alexandra Zaïnal
Original concept : Baudouin d'Aumeries
Technical & hardware support : Manuel Goepfert
Assistance : Marc-Olivier Méhu




SOURCES & CREDITS :

   NOAA